Hayti, South Dakota
Current Conditions -  °F | °C
As of 8:53 PM on Tuesday 25 Nov 2014 (Local Time) from KATY Reporting Station
Overcast Overcast  
Wind Chill: 24°   Ceiling: 4800
Heat Index: 30°   Visibility: 10mi
Dew Point: 23°   Wind: 6mph
Humidity: 75%   Direction: 120°ESE
Pressure: 29.8"   Gusts: NA
Location:  44.66°N, 97.21°W
Report Text: KATY 260253Z AUTO 12005KT 10SM FEW033 BKN048 OVC055 M01/M05 A2980 RMK AO2 SLP114 T10111050 56011
Loading
Personal Weather Stations






























Interactive Weather Map New forecast layout! Learn more

10-Day Weather Forecast

Advertisements
Track Severe Weather on mobile